createdAt,value
2018-07-03T00:00:22.204Z,945.37
2018-07-03T00:01:22.192Z,945.37
2018-07-03T00:02:22.254Z,945.36
2018-07-03T00:03:22.151Z,945.36
2018-07-03T00:04:22.147Z,945.35
2018-07-03T00:05:22.144Z,945.39
2018-07-03T00:06:22.144Z,945.39
2018-07-03T00:07:22.158Z,945.40
2018-07-03T00:08:22.141Z,945.42
2018-07-03T00:09:22.129Z,945.46
2018-07-03T00:10:22.131Z,945.45
2018-07-03T00:11:22.157Z,945.46
2018-07-03T00:12:22.150Z,945.42
2018-07-03T00:13:22.134Z,945.47
2018-07-03T00:14:22.130Z,945.47
2018-07-03T00:15:22.143Z,945.47
2018-07-03T00:16:22.133Z,945.48
2018-07-03T00:17:22.125Z,945.48
2018-07-03T00:18:22.126Z,945.53
2018-07-03T00:19:22.127Z,945.51
2018-07-03T00:20:22.121Z,945.52
2018-07-03T00:21:22.121Z,945.48
2018-07-03T00:22:22.121Z,945.51
2018-07-03T00:23:22.113Z,945.46
2018-07-03T00:24:22.114Z,945.44
2018-07-03T00:25:22.121Z,945.49
2018-07-03T00:26:22.110Z,945.45
2018-07-03T00:27:22.113Z,945.43
2018-07-03T00:28:22.130Z,945.42
2018-07-03T00:29:22.109Z,945.41
2018-07-03T00:30:22.136Z,945.40
2018-07-03T00:31:22.151Z,945.39
2018-07-03T00:32:22.114Z,945.37
2018-07-03T00:33:22.121Z,945.36
2018-07-03T00:34:22.092Z,945.35
2018-07-03T00:35:22.100Z,945.35
2018-07-03T00:36:22.122Z,945.35
2018-07-03T00:37:22.095Z,945.34
2018-07-03T00:38:22.093Z,945.34
2018-07-03T00:39:22.089Z,945.36
2018-07-03T00:40:22.230Z,945.34
2018-07-03T00:41:22.088Z,945.34
2018-07-03T00:42:22.084Z,945.33
2018-07-03T00:43:22.093Z,945.30
2018-07-03T00:44:22.109Z,945.31
2018-07-03T00:45:22.078Z,945.32
2018-07-03T00:46:22.128Z,945.33
2018-07-03T00:47:22.079Z,945.31
2018-07-03T00:48:22.069Z,945.33
2018-07-03T00:49:22.070Z,945.31
2018-07-03T00:50:22.069Z,945.29
2018-07-03T00:51:22.067Z,945.31
2018-07-03T00:52:22.080Z,945.30
2018-07-03T00:53:22.065Z,945.35
2018-07-03T00:54:22.067Z,945.35
2018-07-03T00:55:22.048Z,945.39
2018-07-03T00:56:22.932Z,945.37
2018-07-03T00:57:22.076Z,945.41
2018-07-03T00:58:22.078Z,945.43
2018-07-03T00:59:22.066Z,945.41
2018-07-03T01:00:22.063Z,945.40
2018-07-03T01:01:22.280Z,945.37
2018-07-03T01:02:22.153Z,945.39
2018-07-03T01:03:22.049Z,945.44
2018-07-03T01:04:22.061Z,945.43
2018-07-03T01:05:22.036Z,945.45
2018-07-03T01:06:22.039Z,945.43
2018-07-03T01:07:22.042Z,945.44
2018-07-03T01:08:22.058Z,945.44
2018-07-03T01:09:22.033Z,945.44
2018-07-03T01:10:22.052Z,945.47
2018-07-03T01:11:22.053Z,945.46
2018-07-03T01:12:22.032Z,945.52
2018-07-03T01:13:22.018Z,945.52
2018-07-03T01:14:22.023Z,945.54
2018-07-03T01:15:22.026Z,945.52
2018-07-03T01:16:22.036Z,945.55
2018-07-03T01:17:22.128Z,945.57
2018-07-03T01:18:22.019Z,945.56
2018-07-03T01:19:22.034Z,945.59
2018-07-03T01:20:22.013Z,945.55
2018-07-03T01:21:22.033Z,945.58
2018-07-03T01:22:22.028Z,945.57
2018-07-03T01:23:22.009Z,945.59
2018-07-03T01:24:22.028Z,945.59
2018-07-03T01:25:22.086Z,945.63
2018-07-03T01:26:22.034Z,945.63
2018-07-03T01:27:22.008Z,945.62
2018-07-03T01:28:22.000Z,945.62
2018-07-03T01:29:21.988Z,945.61
2018-07-03T01:30:21.995Z,945.64
2018-07-03T02:04:12.806Z,945.55
2018-07-03T02:05:12.773Z,945.54
2018-07-03T02:07:05.675Z,945.52
2018-07-03T02:08:05.643Z,945.50
2018-07-03T02:09:58.538Z,945.51
2018-07-03T02:10:58.527Z,945.48
2018-07-03T02:12:51.437Z,945.50
2018-07-03T02:13:51.400Z,945.49
2018-07-03T02:15:44.290Z,945.56
2018-07-03T02:16:44.283Z,945.52
2018-07-03T02:18:37.303Z,945.52
2018-07-03T02:19:37.275Z,945.55
2018-07-03T02:21:30.194Z,945.54
2018-07-03T02:22:30.156Z,945.54
2018-07-03T02:24:23.049Z,945.54
2018-07-03T02:25:23.033Z,945.51
2018-07-03T02:27:15.933Z,945.53
2018-07-03T02:28:15.916Z,945.57
2018-07-03T02:30:08.800Z,945.58
2018-07-03T02:31:08.791Z,945.56
2018-07-03T02:33:01.690Z,945.55
2018-07-03T02:34:01.679Z,945.55
2018-07-03T02:35:54.565Z,945.55
2018-07-03T02:36:54.554Z,945.53
2018-07-03T02:38:47.458Z,945.52
2018-07-03T02:39:47.442Z,945.53
2018-07-03T02:41:40.339Z,945.57
2018-07-03T02:42:40.323Z,945.59
2018-07-03T02:44:33.292Z,945.63
2018-07-03T02:45:33.261Z,945.64
2018-07-03T02:47:26.176Z,945.60
2018-07-03T02:48:26.157Z,945.63
2018-07-03T02:50:20.061Z,945.65
2018-07-03T02:51:20.043Z,945.63
2018-07-03T02:53:12.953Z,945.61
2018-07-03T02:54:12.931Z,945.63
2018-07-03T02:56:05.825Z,945.67
2018-07-03T02:57:05.814Z,945.66
2018-07-03T02:58:58.726Z,945.64
2018-07-03T02:59:58.704Z,945.61
2018-07-03T03:01:51.592Z,945.59
2018-07-03T03:02:51.585Z,945.61
2018-07-03T03:04:44.490Z,945.57
2018-07-03T03:05:44.471Z,945.59
2018-07-03T03:07:37.369Z,945.60
2018-07-03T03:08:37.368Z,945.60
2018-07-03T03:10:30.254Z,945.56
2018-07-03T03:11:30.232Z,945.60
2018-07-03T03:13:23.130Z,945.52
2018-07-03T03:14:23.116Z,945.54
2018-07-03T03:16:16.020Z,945.58
2018-07-03T03:17:16.002Z,945.58
2018-07-03T03:19:08.905Z,945.58
2018-07-03T03:20:08.876Z,945.61
2018-07-03T03:22:01.782Z,945.63
2018-07-03T03:23:01.773Z,945.63
2018-07-03T03:24:54.674Z,945.64
2018-07-03T03:25:54.651Z,945.64
2018-07-03T03:27:47.561Z,945.62
2018-07-03T03:28:47.552Z,945.65
2018-07-03T03:30:40.470Z,945.72
2018-07-03T03:31:40.431Z,945.77
2018-07-03T03:33:33.326Z,945.78
2018-07-03T03:34:33.315Z,945.79
2018-07-03T03:36:26.229Z,945.78
2018-07-03T03:37:26.204Z,945.73
2018-07-03T03:39:19.112Z,945.79
2018-07-03T03:40:19.090Z,945.80
2018-07-03T03:42:11.997Z,945.81
2018-07-03T03:43:11.972Z,945.85
2018-07-03T03:45:04.883Z,945.87
2018-07-03T03:46:04.860Z,945.86
2018-07-03T03:47:57.757Z,945.82
2018-07-03T03:48:57.748Z,945.81
2018-07-03T03:50:50.653Z,945.84
2018-07-03T03:51:50.635Z,945.88
2018-07-03T03:53:43.530Z,945.84
2018-07-03T03:54:43.512Z,945.83
2018-07-03T03:56:36.417Z,945.80
2018-07-03T03:57:36.397Z,945.82
2018-07-03T03:59:29.294Z,945.93
2018-07-03T04:00:29.279Z,945.92
2018-07-03T04:02:22.178Z,945.87
2018-07-03T04:03:22.163Z,945.92
2018-07-03T04:05:15.058Z,945.86
2018-07-03T04:06:15.041Z,945.87
2018-07-03T04:08:07.947Z,945.88
2018-07-03T04:09:07.929Z,945.85
2018-07-03T04:11:01.235Z,945.91
2018-07-03T04:12:01.215Z,945.91
2018-07-03T04:13:01.215Z,945.96
2018-07-03T04:14:01.223Z,945.94
2018-07-03T04:15:01.211Z,945.93
2018-07-03T04:16:01.216Z,945.89
2018-07-03T04:17:01.208Z,945.87
2018-07-03T04:18:01.227Z,945.86
2018-07-03T04:19:01.200Z,945.84
2018-07-03T04:20:01.206Z,945.82
2018-07-03T04:21:01.198Z,945.82
2018-07-03T04:22:01.199Z,945.77
2018-07-03T04:23:01.220Z,945.80
2018-07-03T04:24:01.202Z,945.80
2018-07-03T04:25:01.191Z,945.77
2018-07-03T04:26:01.181Z,945.80
2018-07-03T04:27:01.187Z,945.80
2018-07-03T04:28:01.195Z,945.75
2018-07-03T04:29:01.186Z,945.75
2018-07-03T04:30:01.187Z,945.73
2018-07-03T04:31:01.186Z,945.71
2018-07-03T04:32:01.175Z,945.67
2018-07-03T04:33:01.198Z,945.74
2018-07-03T04:34:01.229Z,945.73
2018-07-03T04:35:01.179Z,945.73
2018-07-03T04:36:01.175Z,945.76
2018-07-03T04:37:01.173Z,945.76
2018-07-03T04:38:01.183Z,945.73
2018-07-03T04:39:01.230Z,945.73
2018-07-03T04:40:01.168Z,945.74
2018-07-03T04:41:01.164Z,945.75
2018-07-03T04:42:01.160Z,945.80
2018-07-03T04:43:01.162Z,945.80
2018-07-03T04:44:01.164Z,945.84
2018-07-03T04:45:01.163Z,945.84
2018-07-03T04:46:01.159Z,945.87
2018-07-03T04:47:01.158Z,945.87
2018-07-03T04:48:01.166Z,945.85
2018-07-03T04:49:01.152Z,945.81
2018-07-03T04:50:01.156Z,945.80
2018-07-03T04:51:01.161Z,945.83
2018-07-03T04:52:01.142Z,945.81
2018-07-03T04:53:01.152Z,945.80
2018-07-03T04:54:01.148Z,945.75
2018-07-03T04:55:01.149Z,945.77
2018-07-03T04:56:01.145Z,945.81
2018-07-03T04:57:01.160Z,945.80
2018-07-03T04:58:01.142Z,945.81
2018-07-03T04:59:01.147Z,945.83
2018-07-03T05:00:01.143Z,945.83
2018-07-03T05:01:01.138Z,945.84
2018-07-03T05:02:01.140Z,945.77
2018-07-03T05:03:01.139Z,945.78
2018-07-03T05:04:01.139Z,945.77
2018-07-03T05:05:01.145Z,945.76
2018-07-03T05:06:01.136Z,945.71
2018-07-03T05:07:01.169Z,945.72
2018-07-03T05:08:01.133Z,945.74
2018-07-03T05:09:01.135Z,945.72
2018-07-03T05:10:01.188Z,945.78
2018-07-03T05:11:01.192Z,945.78
2018-07-03T05:12:01.155Z,945.80
2018-07-03T05:13:01.135Z,945.82
2018-07-03T05:14:01.130Z,945.79
2018-07-03T05:15:01.151Z,945.79
2018-07-03T05:16:01.365Z,945.80
2018-07-03T05:17:01.130Z,945.83
2018-07-03T05:18:01.153Z,945.86
2018-07-03T05:19:01.125Z,945.88
2018-07-03T05:20:01.135Z,945.93
2018-07-03T05:21:01.132Z,945.94
2018-07-03T05:22:01.121Z,945.94
2018-07-03T05:23:01.153Z,945.91
2018-07-03T05:24:01.239Z,945.97
2018-07-03T05:25:01.157Z,945.97
2018-07-03T05:26:01.144Z,945.97
2018-07-03T05:27:01.155Z,946.02
2018-07-03T05:28:01.254Z,946.01
2018-07-03T05:29:01.134Z,946.06
2018-07-03T05:30:01.132Z,946.05
2018-07-03T05:31:01.123Z,946.04
2018-07-03T05:32:01.199Z,946.03
2018-07-03T05:33:01.139Z,946.04
2018-07-03T05:34:01.131Z,946.01
2018-07-03T05:35:01.130Z,946.01
2018-07-03T05:36:01.136Z,946.01
2018-07-03T05:37:01.133Z,946.06
2018-07-03T05:38:01.138Z,946.05
2018-07-03T05:39:01.127Z,946.06
2018-07-03T05:40:01.132Z,946.09
2018-07-03T05:41:01.134Z,946.08
2018-07-03T05:42:01.145Z,946.09
2018-07-03T05:43:01.169Z,946.09
2018-07-03T05:44:01.145Z,946.09
2018-07-03T05:45:01.142Z,946.13
2018-07-03T05:46:01.156Z,946.14
2018-07-03T05:47:01.144Z,946.14
2018-07-03T05:48:01.146Z,946.16
2018-07-03T05:49:01.143Z,946.13
2018-07-03T05:50:01.164Z,946.15
2018-07-03T05:51:01.143Z,946.16
2018-07-03T05:52:01.147Z,946.19
2018-07-03T05:53:01.150Z,946.23
2018-07-03T05:54:01.155Z,946.23
2018-07-03T05:55:01.153Z,946.27
2018-07-03T05:56:01.154Z,946.30
2018-07-03T05:57:01.193Z,946.27
2018-07-03T05:58:01.157Z,946.30
2018-07-03T05:59:01.150Z,946.32
2018-07-03T06:00:01.238Z,946.34
2018-07-03T06:01:01.163Z,946.38
2018-07-03T06:02:01.161Z,946.36
2018-07-03T06:03:01.162Z,946.43
2018-07-03T06:04:01.167Z,946.42
2018-07-03T06:05:01.173Z,946.43
2018-07-03T06:06:01.173Z,946.42
2018-07-03T06:07:01.179Z,946.45
2018-07-03T06:08:01.178Z,946.39
2018-07-03T06:09:01.173Z,946.41
2018-07-03T06:10:01.184Z,946.43
2018-07-03T06:11:01.182Z,946.43
2018-07-03T06:12:01.185Z,946.43
2018-07-03T06:13:01.223Z,946.47
2018-07-03T06:14:01.196Z,946.51
2018-07-03T06:15:01.211Z,946.49
2018-07-03T06:16:01.199Z,946.48
2018-07-03T06:17:01.194Z,946.47
2018-07-03T06:18:01.200Z,946.44
2018-07-03T06:19:01.203Z,946.47
2018-07-03T06:20:01.209Z,946.44
2018-07-03T06:21:01.208Z,946.50
2018-07-03T06:22:01.208Z,946.53
2018-07-03T06:23:01.218Z,946.54
2018-07-03T06:24:01.216Z,946.57
2018-07-03T06:25:01.223Z,946.58
2018-07-03T06:26:01.224Z,946.63
2018-07-03T06:27:01.234Z,946.59
2018-07-03T06:28:01.232Z,946.59
2018-07-03T06:29:01.284Z,946.56
2018-07-03T06:30:01.236Z,946.56
2018-07-03T06:31:01.253Z,946.53
2018-07-03T06:32:01.293Z,946.56
2018-07-03T06:33:01.278Z,946.55
2018-07-03T06:34:01.247Z,946.56
2018-07-03T06:35:01.273Z,946.57
2018-07-03T06:36:01.256Z,946.54
2018-07-03T06:37:01.259Z,946.53
2018-07-03T06:38:01.262Z,946.53
2018-07-03T06:39:01.292Z,946.57
2018-07-03T06:40:01.308Z,946.59
2018-07-03T06:41:01.273Z,946.60
2018-07-03T06:42:01.275Z,946.60
2018-07-03T06:43:01.281Z,946.55
2018-07-03T06:44:01.290Z,946.58
2018-07-03T06:45:01.351Z,946.55
2018-07-03T06:46:01.295Z,946.55
2018-07-03T06:47:01.293Z,946.55
2018-07-03T06:48:01.295Z,946.55
2018-07-03T06:49:01.308Z,946.56
2018-07-03T06:50:01.363Z,946.53
2018-07-03T06:51:01.305Z,946.57
2018-07-03T06:52:01.308Z,946.52
2018-07-03T06:53:01.316Z,946.52
2018-07-03T06:54:01.324Z,946.55
2018-07-03T06:55:01.361Z,946.56
2018-07-03T06:56:01.343Z,946.57
2018-07-03T06:57:01.338Z,946.56
2018-07-03T06:58:01.346Z,946.59
2018-07-03T06:59:01.358Z,946.57
2018-07-03T07:00:01.373Z,946.55
2018-07-03T07:01:01.364Z,946.57
2018-07-03T07:02:01.370Z,946.57
2018-07-03T07:03:01.381Z,946.51
2018-07-03T07:04:01.401Z,946.57
2018-07-03T07:05:01.393Z,946.54
2018-07-03T07:06:01.394Z,946.52
2018-07-03T07:07:01.409Z,946.56
2018-07-03T07:08:01.405Z,946.55
2018-07-03T07:09:01.509Z,946.56
2018-07-03T07:10:01.418Z,946.58
2018-07-03T07:11:01.428Z,946.65
2018-07-03T07:12:01.426Z,946.66
2018-07-03T07:13:01.517Z,946.65
2018-07-03T07:14:01.521Z,946.56
2018-07-03T07:15:01.477Z,946.56
2018-07-03T07:16:01.463Z,946.50
2018-07-03T07:17:01.466Z,946.51
2018-07-03T07:18:01.476Z,946.48
2018-07-03T07:19:01.485Z,946.53
2018-07-03T07:20:01.495Z,946.53
2018-07-03T07:21:01.488Z,946.56
2018-07-03T07:22:01.515Z,946.45
2018-07-03T07:23:01.544Z,946.50
2018-07-03T07:24:01.521Z,946.52
2018-07-03T07:25:01.529Z,946.53
2018-07-03T07:26:01.541Z,946.61
2018-07-03T07:27:01.550Z,946.60
2018-07-03T07:28:01.555Z,946.65
2018-07-03T07:29:01.562Z,946.61
2018-07-03T07:30:01.583Z,946.63
2018-07-03T07:31:01.609Z,946.63
2018-07-03T07:32:01.601Z,946.63
2018-07-03T07:33:01.595Z,946.66
2018-07-03T07:34:01.652Z,946.64
2018-07-03T07:35:01.610Z,946.65
2018-07-03T07:36:01.652Z,946.61
2018-07-03T07:37:01.625Z,946.61
2018-07-03T07:38:01.649Z,946.66
2018-07-03T07:39:01.644Z,946.65
2018-07-03T07:40:01.647Z,946.77
2018-07-03T07:41:01.658Z,946.77
2018-07-03T07:42:01.663Z,946.79
2018-07-03T07:43:01.666Z,946.78
2018-07-03T07:44:01.675Z,946.87
2018-07-03T07:45:01.682Z,946.86
2018-07-03T07:46:01.698Z,946.90
2018-07-03T07:47:01.693Z,946.96
2018-07-03T07:48:01.705Z,947.03
2018-07-03T07:49:01.710Z,947.09
2018-07-03T07:50:01.707Z,947.15
2018-07-03T07:51:01.732Z,947.17
2018-07-03T07:52:01.728Z,947.25
2018-07-03T07:53:01.727Z,947.31
2018-07-03T07:54:01.742Z,947.34
2018-07-03T07:55:01.802Z,947.38
2018-07-03T07:56:01.751Z,947.44
2018-07-03T07:57:01.749Z,947.52
2018-07-03T07:58:01.764Z,947.54
2018-07-03T07:59:01.760Z,947.52
2018-07-03T08:00:01.799Z,947.55
2018-07-03T08:01:01.776Z,947.55
2018-07-03T08:02:01.773Z,947.61
2018-07-03T08:03:01.791Z,947.65
2018-07-03T08:04:01.782Z,947.60
2018-07-03T08:05:01.787Z,947.60
2018-07-03T08:06:01.792Z,947.62
2018-07-03T08:07:01.798Z,947.60
2018-07-03T08:08:01.803Z,947.58
2018-07-03T08:09:01.803Z,947.60
2018-07-03T08:10:01.803Z,947.63
2018-07-03T08:11:01.816Z,947.64
2018-07-03T08:12:01.823Z,947.71
2018-07-03T08:13:01.817Z,947.74
2018-07-03T08:14:01.823Z,947.73
2018-07-03T08:15:01.825Z,947.76
2018-07-03T08:16:01.825Z,947.74
2018-07-03T08:17:01.831Z,947.72
2018-07-03T08:18:01.838Z,947.80
2018-07-03T08:19:01.853Z,947.86
2018-07-03T08:20:01.845Z,947.89
2018-07-03T08:21:01.848Z,947.88
2018-07-03T08:22:01.846Z,947.88
2018-07-03T08:23:01.845Z,947.88
2018-07-03T08:24:01.851Z,947.91
2018-07-03T08:25:01.857Z,947.91
2018-07-03T08:26:01.858Z,947.95
2018-07-03T08:27:01.867Z,947.93
2018-07-03T08:28:01.868Z,947.96
2018-07-03T08:29:01.872Z,947.96
2018-07-03T08:30:01.873Z,948.06
2018-07-03T08:31:01.894Z,948.04
2018-07-03T08:32:01.913Z,948.04
2018-07-03T08:33:01.890Z,948.09
2018-07-03T08:34:01.947Z,948.08
2018-07-03T08:35:01.878Z,948.09
2018-07-03T08:36:01.889Z,948.14
2018-07-03T08:37:01.897Z,948.15
2018-07-03T08:38:01.894Z,948.19
2018-07-03T08:39:01.895Z,948.16
2018-07-03T08:40:01.919Z,948.20
2018-07-03T08:41:01.904Z,948.12
2018-07-03T08:42:01.907Z,948.17
2018-07-03T08:43:01.917Z,948.18
2018-07-03T08:44:01.909Z,948.16
2018-07-03T08:45:01.914Z,948.18
2018-07-03T08:46:01.916Z,948.24
2018-07-03T08:47:01.911Z,948.22
2018-07-03T08:48:01.913Z,948.26
2018-07-03T08:49:01.918Z,948.32
2018-07-03T08:50:01.927Z,948.36
2018-07-03T08:51:01.940Z,948.40
2018-07-03T08:52:01.951Z,948.40
2018-07-03T08:53:01.926Z,948.38
2018-07-03T08:54:01.929Z,948.39
2018-07-03T08:55:01.974Z,948.42
2018-07-03T08:56:01.940Z,948.39
2018-07-03T08:57:01.929Z,948.40
2018-07-03T08:58:01.961Z,948.36
2018-07-03T08:59:01.934Z,948.39
2018-07-03T09:00:01.941Z,948.45
2018-07-03T09:01:01.937Z,948.40
2018-07-03T09:02:01.953Z,948.43
2018-07-03T09:03:01.956Z,948.41
2018-07-03T09:04:01.935Z,948.47
2018-07-03T09:05:01.945Z,948.50
2018-07-03T09:06:01.944Z,948.48
2018-07-03T09:07:01.948Z,948.47
2018-07-03T09:08:01.952Z,948.44
2018-07-03T09:09:01.950Z,948.43
2018-07-03T09:10:01.942Z,948.46
2018-07-03T09:11:01.949Z,948.47
2018-07-03T09:12:01.956Z,948.47
2018-07-03T09:13:01.950Z,948.44
2018-07-03T09:14:01.956Z,948.42
2018-07-03T09:15:01.957Z,948.43
2018-07-03T09:16:01.959Z,948.44
2018-07-03T09:17:02.138Z,948.44
2018-07-03T09:18:02.089Z,948.44
2018-07-03T09:19:01.955Z,948.42
2018-07-03T09:20:01.955Z,948.44
2018-07-03T09:21:01.959Z,948.41
2018-07-03T09:22:01.980Z,948.42
2018-07-03T09:23:01.965Z,948.42
2018-07-03T09:24:01.960Z,948.44
2018-07-03T09:25:01.954Z,948.41
2018-07-03T09:26:01.980Z,948.42
2018-07-03T09:27:01.979Z,948.51
2018-07-03T09:28:01.952Z,948.49
2018-07-03T09:29:01.974Z,948.47
2018-07-03T09:30:01.964Z,948.46
2018-07-03T09:31:01.963Z,948.52
2018-07-03T09:32:01.976Z,948.47
2018-07-03T09:33:01.974Z,948.51
2018-07-03T09:34:01.965Z,948.51
2018-07-03T09:35:01.966Z,948.52
2018-07-03T09:36:01.965Z,948.54
2018-07-03T09:37:01.969Z,948.51
2018-07-03T09:38:01.979Z,948.52
2018-07-03T09:39:01.967Z,948.51
2018-07-03T09:40:01.979Z,948.41
2018-07-03T09:41:01.982Z,948.45
2018-07-03T09:42:01.994Z,948.38
2018-07-03T09:43:01.968Z,948.38
2018-07-03T09:44:02.092Z,948.36
2018-07-03T09:45:01.971Z,948.44
2018-07-03T09:46:01.967Z,948.39
2018-07-03T09:47:01.972Z,948.41
2018-07-03T09:48:01.971Z,948.40
2018-07-03T09:49:01.970Z,948.37
2018-07-03T09:50:01.987Z,948.40
2018-07-03T09:51:01.996Z,948.44
2018-07-03T09:52:01.963Z,948.44
2018-07-03T09:53:01.971Z,948.44
2018-07-03T09:54:01.966Z,948.50
2018-07-03T09:55:02.045Z,948.50
2018-07-03T09:56:01.968Z,948.49
2018-07-03T09:57:01.963Z,948.55
2018-07-03T09:58:01.964Z,948.58
2018-07-03T09:59:01.968Z,948.62
2018-07-03T10:00:01.965Z,948.69
2018-07-03T10:01:01.959Z,948.73
2018-07-03T10:02:01.963Z,948.68
2018-07-03T10:03:01.973Z,948.74
2018-07-03T10:04:01.967Z,948.79
2018-07-03T10:05:01.972Z,948.75
2018-07-03T10:06:01.962Z,948.84
2018-07-03T10:07:01.962Z,948.83
2018-07-03T10:08:01.962Z,948.87
2018-07-03T10:09:01.978Z,948.89
2018-07-03T10:10:01.975Z,948.98
2018-07-03T10:11:02.016Z,949.00
2018-07-03T10:12:01.956Z,949.02
2018-07-03T10:13:02.019Z,949.07
2018-07-03T10:14:01.962Z,949.11
2018-07-03T10:15:01.987Z,949.17
2018-07-03T10:16:01.961Z,949.19
2018-07-03T10:17:01.960Z,949.20
2018-07-03T10:18:01.968Z,949.21
2018-07-03T10:19:01.980Z,949.21
2018-07-03T10:20:01.954Z,949.26
2018-07-03T10:21:01.955Z,949.31
2018-07-03T10:22:01.967Z,949.38
2018-07-03T10:23:01.952Z,949.40
2018-07-03T10:24:01.950Z,949.45
2018-07-03T10:25:01.950Z,949.50
2018-07-03T10:26:01.950Z,949.50
2018-07-03T10:27:01.974Z,949.54
2018-07-03T10:28:01.976Z,949.53
2018-07-03T10:29:01.945Z,949.54
2018-07-03T10:30:01.962Z,949.54
2018-07-03T10:31:01.956Z,949.55
2018-07-03T10:32:01.940Z,949.56
2018-07-03T10:33:01.972Z,949.57
2018-07-03T10:34:01.940Z,949.59
2018-07-03T10:35:01.943Z,949.60
2018-07-03T10:36:01.965Z,949.56
2018-07-03T10:37:02.060Z,949.54
2018-07-03T10:38:02.067Z,949.50
2018-07-03T10:39:01.940Z,949.47
2018-07-03T10:40:01.936Z,949.41
2018-07-03T10:41:01.987Z,949.45
2018-07-03T10:42:01.940Z,949.47
2018-07-03T10:43:01.938Z,949.45
2018-07-03T10:44:01.935Z,949.51
2018-07-03T10:45:02.133Z,949.50
2018-07-03T10:46:01.963Z,949.50
2018-07-03T10:47:01.926Z,949.47
2018-07-03T10:48:01.925Z,949.47
2018-07-03T10:49:01.925Z,949.47
2018-07-03T10:50:01.945Z,949.50
2018-07-03T10:51:01.927Z,949.45
2018-07-03T10:52:01.928Z,949.46
2018-07-03T10:53:01.928Z,949.47
2018-07-03T10:54:01.925Z,949.46
2018-07-03T10:55:01.920Z,949.50
2018-07-03T10:56:01.922Z,949.46
2018-07-03T10:57:01.958Z,949.49
2018-07-03T10:58:01.918Z,949.41
2018-07-03T10:59:01.968Z,949.41
2018-07-03T11:00:01.918Z,949.35
2018-07-03T11:01:01.914Z,949.34
2018-07-03T11:02:01.918Z,949.31
2018-07-03T11:03:01.954Z,949.29
2018-07-03T11:04:01.922Z,949.30
2018-07-03T11:05:01.941Z,949.27
2018-07-03T11:06:01.941Z,949.20
2018-07-03T11:07:01.916Z,949.25
2018-07-03T11:08:01.912Z,949.26
2018-07-03T11:09:01.915Z,949.24
2018-07-03T11:10:01.913Z,949.16
2018-07-03T11:11:01.916Z,949.19
2018-07-03T11:12:01.916Z,949.18
2018-07-03T11:13:01.923Z,949.19
2018-07-03T11:14:01.940Z,949.13
2018-07-03T11:15:01.930Z,949.13
2018-07-03T11:16:01.914Z,949.14
2018-07-03T11:17:01.915Z,949.11
2018-07-03T11:18:01.924Z,949.13
2018-07-03T11:19:01.922Z,949.12
2018-07-03T11:20:02.008Z,949.13
2018-07-03T11:21:01.921Z,949.17
2018-07-03T11:22:01.921Z,949.08
2018-07-03T11:23:01.927Z,949.11
2018-07-03T11:24:01.924Z,949.10
2018-07-03T11:25:01.931Z,949.08
2018-07-03T11:26:01.938Z,949.06
2018-07-03T11:27:01.928Z,949.04
2018-07-03T11:28:01.920Z,949.02
2018-07-03T11:29:01.963Z,948.99
2018-07-03T11:30:01.925Z,948.98
2018-07-03T11:31:01.934Z,948.96
2018-07-03T11:32:01.934Z,948.92
2018-07-03T11:33:01.961Z,948.96
2018-07-03T11:34:01.934Z,948.93
2018-07-03T11:35:01.932Z,948.93
2018-07-03T11:36:01.932Z,948.86
2018-07-03T11:37:01.935Z,948.91
2018-07-03T11:38:01.966Z,948.86
2018-07-03T11:39:01.933Z,948.92
2018-07-03T11:40:01.957Z,948.96
2018-07-03T11:41:01.942Z,948.96
2018-07-03T11:42:01.945Z,948.94
2018-07-03T11:43:02.021Z,948.93
2018-07-03T11:44:01.952Z,948.99
2018-07-03T11:45:01.953Z,948.96
2018-07-03T11:46:01.951Z,949.00
2018-07-03T11:47:01.956Z,948.97
2018-07-03T11:48:01.957Z,948.98
2018-07-03T11:49:01.960Z,948.94
2018-07-03T11:50:01.999Z,948.93
2018-07-03T11:51:01.962Z,948.95
2018-07-03T11:52:01.971Z,948.90
2018-07-03T11:53:01.995Z,948.88
2018-07-03T11:54:01.972Z,948.89
2018-07-03T11:55:01.977Z,948.86
2018-07-03T11:56:01.978Z,948.92
2018-07-03T11:57:01.972Z,948.91
2018-07-03T11:58:01.981Z,948.88
2018-07-03T11:59:01.988Z,948.84
2018-07-03T12:00:01.989Z,948.79
2018-07-03T12:01:01.982Z,948.82
2018-07-03T12:02:01.993Z,948.81
2018-07-03T12:03:02.002Z,948.78
2018-07-03T12:04:02.014Z,948.78
2018-07-03T12:05:02.013Z,948.73
2018-07-03T12:06:02.027Z,948.69
2018-07-03T12:07:02.025Z,948.66
2018-07-03T12:08:02.027Z,948.65
2018-07-03T12:09:02.020Z,948.63
2018-07-03T12:10:02.034Z,948.59
2018-07-03T12:11:02.031Z,948.61
2018-07-03T12:12:02.036Z,948.61
2018-07-03T12:13:02.041Z,948.62
2018-07-03T12:14:02.056Z,948.63
2018-07-03T12:15:02.054Z,948.62
2018-07-03T12:16:02.076Z,948.62
2018-07-03T12:17:02.060Z,948.63
2018-07-03T12:18:02.072Z,948.61
2018-07-03T12:19:02.082Z,948.60
2018-07-03T12:20:02.078Z,948.62
2018-07-03T12:21:02.083Z,948.61
2018-07-03T12:22:02.094Z,948.62
2018-07-03T12:23:02.084Z,948.67
2018-07-03T12:24:02.102Z,948.59
2018-07-03T12:25:02.111Z,948.61
2018-07-03T12:26:02.113Z,948.61
2018-07-03T12:27:02.126Z,948.62
2018-07-03T12:28:02.150Z,948.61
2018-07-03T12:29:02.182Z,948.62
2018-07-03T12:30:02.141Z,948.64
2018-07-03T12:31:02.148Z,948.58
2018-07-03T12:32:02.162Z,948.61
2018-07-03T12:33:02.155Z,948.59
2018-07-03T12:34:02.163Z,948.62
2018-07-03T12:35:02.182Z,948.63
2018-07-03T12:36:02.175Z,948.55
2018-07-03T12:37:02.183Z,948.61
2018-07-03T12:38:02.195Z,948.55
2018-07-03T12:39:02.209Z,948.56
2018-07-03T12:40:02.207Z,948.52
2018-07-03T12:41:02.212Z,948.54
2018-07-03T12:42:02.219Z,948.52
2018-07-03T12:43:02.243Z,948.52
2018-07-03T12:44:02.305Z,948.46
2018-07-03T12:45:02.254Z,948.45
2018-07-03T12:46:02.244Z,948.50
2018-07-03T12:47:02.266Z,948.48
2018-07-03T12:48:02.269Z,948.46
2018-07-03T12:49:02.289Z,948.48
2018-07-03T12:50:02.295Z,948.45
2018-07-03T12:51:02.277Z,948.46
2018-07-03T12:52:02.268Z,948.46
2018-07-03T12:53:02.285Z,948.47
2018-07-03T12:54:02.297Z,948.39
2018-07-03T12:55:02.300Z,948.44
2018-07-03T12:56:02.357Z,948.41
2018-07-03T12:57:02.333Z,948.35
2018-07-03T12:58:02.316Z,948.34
2018-07-03T12:59:02.342Z,948.35
2018-07-03T13:00:02.328Z,948.35
2018-07-03T13:01:02.419Z,948.34
2018-07-03T13:02:02.345Z,948.37
2018-07-03T13:03:02.344Z,948.37
2018-07-03T13:04:02.354Z,948.34
2018-07-03T13:05:02.396Z,948.29
2018-07-03T13:06:02.365Z,948.31
2018-07-03T13:07:02.366Z,948.30
2018-07-03T13:08:02.418Z,948.30
2018-07-03T13:09:02.380Z,948.32
2018-07-03T13:10:02.385Z,948.22
2018-07-03T13:11:02.393Z,948.21
2018-07-03T13:12:02.403Z,948.23
2018-07-03T13:13:02.401Z,948.21
2018-07-03T13:14:02.409Z,948.18
2018-07-03T13:15:02.411Z,948.13
2018-07-03T13:16:02.416Z,948.11
2018-07-03T13:17:02.430Z,948.08
2018-07-03T13:18:02.432Z,948.11
2018-07-03T13:19:02.428Z,948.05
2018-07-03T13:20:02.439Z,948.13
2018-07-03T13:21:02.455Z,948.07
2018-07-03T13:22:02.442Z,948.06
2018-07-03T13:23:02.451Z,947.99
2018-07-03T13:24:02.440Z,948.03
2018-07-03T13:25:02.455Z,947.99
2018-07-03T13:26:02.469Z,948.00
2018-07-03T13:27:02.463Z,947.99
2018-07-03T13:28:02.468Z,947.98
2018-07-03T13:29:02.471Z,947.94
2018-07-03T13:30:02.524Z,948.00
2018-07-03T13:31:02.476Z,947.91
2018-07-03T13:32:02.495Z,947.94
2018-07-03T13:33:02.491Z,947.95
2018-07-03T13:34:02.493Z,947.96
2018-07-03T13:35:02.490Z,947.95
2018-07-03T13:36:02.491Z,947.92
2018-07-03T13:37:02.498Z,947.92
2018-07-03T13:38:02.499Z,947.91
2018-07-03T13:39:02.508Z,947.89
2018-07-03T13:40:02.511Z,947.85